Time;durP1;ratioP1;P1;durP2;ratioP2;P2;SDS_P1;SDS_P2;PMS_P1;PMS_P2;Temp;Humidity;BMP_temperature;BMP_pressure;BME280_temperature;BME280_humidity;BME280_pressure;Samples;Min_cycle;Max_cycle;Signal;HPM_P1;HPM_P2
2022/02/10 00:22:30;;;;;;;;;;;;;;;2.40;70.91;97146.53;4982335;28;20437;-74
2022/02/10 00:25:42;;;;;;;;;;;;;;;2.38;71.06;97143.28;4985038;28;20308;-76
2022/02/10 00:36:26;;;;;;;;;;;;;;;2.27;71.24;97143.50;4965993;28;20339;-74
2022/02/10 00:39:03;;;;;;;;;;;;;;;2.24;71.18;97134.25;4981045;28;19969;-75
2022/02/10 00:41:29;;;;;;;;;;;;;;;2.25;71.76;97145.44;4987115;28;19952;-74
2022/02/10 00:43:55;;;;;;;;;;;;;;;2.22;71.40;97137.94;4989628;28;20408;-75
2022/02/10 00:46:21;;;;;;;;;;;;;;;2.20;71.14;97134.69;4982966;28;20047;-75
2022/02/10 00:48:47;;;;;;;;;;;;;;;2.18;71.40;97136.63;4988114;28;19976;-74
2022/02/10 00:51:13;;;;;;;;;;;;;;;2.16;71.71;97138.53;4985421;28;19965;-74
2022/02/10 00:53:42;;;;;;;;;;;;;;;2.13;71.25;97133.69;4982336;28;19967;-74
2022/02/10 00:56:09;;;;;;;;;;;;;;;2.11;71.54;97133.81;4986527;28;19989;-74
2022/02/10 00:58:39;;;;;;;;;;;;;;;2.08;71.18;97135.88;4987363;28;19975;-74
2022/02/10 01:30:37;;;;;;;;;;;;;;;1.67;71.79;97133.69;4977383;28;19965;-75
2022/02/10 01:33:07;;;;;;;;;;;;;;;1.65;72.07;97137.38;4987380;28;20568;-75
2022/02/10 01:35:33;;;;;;;;;;;;;;;1.67;72.08;97130.31;4985963;28;19968;-76
2022/02/10 01:37:59;;;;;;;;;;;;;;;1.68;72.37;97135.34;4989344;28;20005;-75
2022/02/10 02:04:13;;;;;;;;;;;;;;;1.53;72.32;97121.25;4986204;28;19951;-74
2022/02/10 02:06:47;;;;;;;;;;;;;;;1.51;71.55;97108.50;4984919;28;19967;-75
2022/02/10 02:09:15;;;;;;;;;;;;;;;1.48;72.15;97105.38;4986756;28;19959;-75
2022/02/10 02:11:46;;;;;;;;;;;;;;;1.46;72.09;97099.53;4985740;28;19952;-75
2022/02/10 02:14:14;;;;;;;;;;;;;;;1.45;71.95;97098.72;4987630;28;20418;-75
2022/02/10 02:16:44;;;;;;;;;;;;;;;1.42;72.04;97102.38;4992022;28;20336;-75
2022/02/10 02:19:10;;;;;;;;;;;;;;;1.39;72.01;97076.84;4984664;28;19972;-75
2022/02/10 02:21:39;;;;;;;;;;;;;;;1.38;72.31;97079.56;4985009;28;19956;-75
2022/02/10 02:24:06;;;;;;;;;;;;;;;1.38;72.26;97074.41;4982620;28;19969;-75
2022/02/10 02:26:33;;;;;;;;;;;;;;;1.37;72.46;97081.34;4988131;28;19954;-75
2022/02/10 02:29:02;;;;;;;;;;;;;;;1.37;72.27;97078.75;4983546;28;19973;-75
2022/02/10 02:31:36;;;;;;;;;;;;;;;1.35;72.31;97078.09;4981949;28;20338;-75
2022/02/10 03:07:11;;;;;;;;;;;;;;;1.28;72.40;97058.13;4984792;28;19964;-75
2022/02/10 03:09:42;;;;;;;;;;;;;;;1.27;72.70;97059.91;4989694;28;19970;-75
2022/02/10 03:12:10;;;;;;;;;;;;;;;1.27;72.93;97054.72;4985736;28;19959;-76
2022/02/10 03:14:44;;;;;;;;;;;;;;;1.29;76.77;97083.03;4985853;28;19961;-75
2022/02/10 03:19:58;;;;;;;;;;;;;;;1.77;84.46;97082.72;4980263;28;19955;-75
2022/02/10 04:01:22;;;;;;;;;;;;;;;2.40;70.05;97031.81;4978412;28;19958;-74
2022/02/10 04:04:04;;;;;;;;;;;;;;;2.18;70.40;97043.47;4986362;28;20341;-74
2022/02/10 04:23:18;;;;;;;;;;;;;;;1.60;71.77;97060.25;4990839;28;19963;-75
2022/02/10 04:44:19;;;;;;;;;;;;;;;1.31;73.05;97075.94;4991528;28;20044;-76
2022/02/10 04:55:23;;;;;;;;;;;;;;;1.32;73.41;97068.03;4985761;28;19986;-76
2022/02/10 05:06:15;;;;;;;;;;;;;;;1.30;73.42;97056.22;4989519;28;19973;-75
2022/02/10 05:24:45;;;;;;;;;;;;;;;1.16;73.77;97047.19;4978362;28;19959;-76
2022/02/10 05:38:04;;;;;;;;;;;;;;;1.04;73.35;97040.59;4985972;28;19974;-75
2022/02/10 05:44:20;;;;;;;;;;;;;;;0.96;73.30;97036.13;4950211;28;19970;-76
2022/02/10 05:54:02;;;;;;;;;;;;;;;1.00;73.46;97033.09;4988402;28;19963;-76
2022/02/10 05:56:48;;;;;;;;;;;;;;;0.94;73.49;97033.69;4974148;28;19970;-76
2022/02/10 06:02:35;;;;;;;;;;;;;;;0.86;73.77;97035.34;4952782;28;20271;-76
2022/02/10 06:53:52;;;;;;;;;;;;;;;0.76;74.62;97056.06;4985911;28;20339;-76
2022/02/10 06:56:48;;;;;;;;;;;;;;;0.76;74.67;97051.69;4972435;28;19981;-76
2022/02/10 07:05:17;;;;;;;;;;;;;;;0.77;74.82;97035.25;4985329;28;19958;-76
2022/02/10 08:05:02;;;;;;;;;;;;;;;7.41;59.79;96911.88;4986620;28;19969;-76
2022/02/10 08:55:55;;;;;;;;;;;;;;;8.79;56.72;96901.00;4981721;28;20345;-76
2022/02/10 09:14:14;;;;;;;;;;;;;;;9.11;54.99;96889.03;4970037;28;19964;-75
2022/02/10 09:57:33;;;;;;;;;;;;;;;9.68;55.99;96885.09;4989206;28;19963;-76
2022/02/10 10:02:45;;;;;;;;;;;;;;;9.93;56.36;96887.09;4983755;28;20331;-76
2022/02/10 10:10:56;;;;;;;;;;;;;;;10.40;55.20;96868.72;4986644;28;19958;-76
2022/02/10 10:16:02;;;;;;;;;;;;;;;10.58;54.38;96868.84;4983589;28;19966;-76
2022/02/10 10:21:05;;;;;;;;;;;;;;;11.06;53.99;96878.94;4986893;28;20003;-76
2022/02/10 10:48:30;;;;;;;;;;;;;;;11.98;49.25;96816.25;4980823;28;19961;-76
2022/02/10 10:54:46;;;;;;;;;;;;;;;12.25;50.31;96805.47;4973106;28;20434;-73
2022/02/10 11:00:11;;;;;;;;;;;;;;;12.37;49.23;96795.03;4982164;28;19977;-76
2022/02/10 11:39:04;;;;;;;;;;;;;;;13.43;48.34;96886.81;4983083;28;19965;-75
2022/02/10 11:41:39;;;;;;;;;;;;;;;13.40;47.82;96880.97;4981691;28;19960;-75
2022/02/10 14:14:07;;;;;;;;;;;;;;;8.60;62.16;96973.09;4986095;28;19963;-75
2022/02/10 14:27:09;;;;;;;;;;;;;;;8.25;62.37;96979.09;4988667;28;20326;-76
2022/02/10 14:29:39;;;;;;;;;;;;;;;8.20;63.48;96988.47;4989651;28;20003;-75
2022/02/10 14:32:05;;;;;;;;;;;;;;;8.15;63.43;96994.28;4985555;28;19968;-75
2022/02/10 14:34:31;;;;;;;;;;;;;;;8.11;63.18;97000.88;4981684;28;19964;-76
2022/02/10 14:37:54;;;;;;;;;;;;;;;8.06;63.46;97005.84;4989112;28;19960;-76
2022/02/10 16:12:20;;;;;;;;;;;;;;;6.97;61.84;97001.50;4986421;28;19954;-76
2022/02/10 16:19:26;;;;;;;;;;;;;;;7.06;61.38;96986.53;4983078;28;20396;-75
2022/02/10 16:22:02;;;;;;;;;;;;;;;7.06;61.35;96989.94;4992055;28;20414;-75
2022/02/10 16:24:35;;;;;;;;;;;;;;;7.06;61.66;96992.56;4989235;28;19959;-75
2022/02/10 16:27:16;;;;;;;;;;;;;;;7.08;61.87;96997.59;4983774;28;19960;-75
2022/02/10 16:29:42;;;;;;;;;;;;;;;7.06;61.67;96992.56;4984516;28;19952;-76
2022/02/10 16:32:11;;;;;;;;;;;;;;;7.09;61.90;97001.81;4989149;28;19961;-75
2022/02/10 16:34:43;;;;;;;;;;;;;;;7.11;61.55;96999.84;4988153;28;19956;-76
2022/02/10 16:37:12;;;;;;;;;;;;;;;7.10;61.48;96990.41;4986713;28;19961;-76
2022/02/10 16:39:38;;;;;;;;;;;;;;;7.09;61.33;96996.59;4989164;28;20341;-75
2022/02/10 16:42:06;;;;;;;;;;;;;;;7.09;61.70;96988.78;4987433;28;19977;-76
2022/02/10 16:44:32;;;;;;;;;;;;;;;7.09;60.14;96971.31;4985270;28;19953;-76
2022/02/10 16:46:59;;;;;;;;;;;;;;;7.04;61.33;96986.72;4989509;28;20050;-76
2022/02/10 16:49:27;;;;;;;;;;;;;;;6.99;61.32;96980.41;4993415;28;19954;-76
2022/02/10 16:51:54;;;;;;;;;;;;;;;6.94;60.75;96977.56;4982213;28;20289;-76
2022/02/10 16:54:44;;;;;;;;;;;;;;;6.87;61.42;96980.91;4985251;28;19957;-75
2022/02/10 16:57:36;;;;;;;;;;;;;;;6.83;61.39;96982.25;4989960;28;19965;-76
2022/02/10 17:19:04;;;;;;;;;;;;;;;6.75;61.91;97003.19;4982624;28;19970;-76
2022/02/10 17:53:22;;;;;;;;;;;;;;;6.28;65.29;97022.53;4980666;28;19961;-76
2022/02/10 17:55:48;;;;;;;;;;;;;;;6.27;65.36;97021.72;4986990;28;20460;-77
2022/02/10 17:58:14;;;;;;;;;;;;;;;6.30;65.08;97023.97;4987386;28;19974;-76
2022/02/10 18:00:40;;;;;;;;;;;;;;;6.33;65.37;97022.00;4987664;28;19977;-76
2022/02/10 18:03:06;;;;;;;;;;;;;;;6.35;65.20;97018.25;4982358;28;19999;-76
2022/02/10 18:08:00;;;;;;;;;;;;;;;6.40;65.23;97013.28;4989550;28;20409;-76
2022/02/10 18:11:15;;;;;;;;;;;;;;;6.45;65.32;97020.59;4985877;28;19951;-75
2022/02/10 18:16:06;;;;;;;;;;;;;;;6.51;65.03;97017.28;4986692;28;20324;-76
2022/02/10 18:18:38;;;;;;;;;;;;;;;6.53;65.05;97011.88;4988534;28;20319;-76
2022/02/10 18:21:24;;;;;;;;;;;;;;;6.52;64.93;97011.06;4987357;28;19973;-76
2022/02/10 18:24:06;;;;;;;;;;;;;;;6.53;64.78;97009.28;4986135;28;19964;-76
2022/02/10 18:29:04;;;;;;;;;;;;;;;6.48;64.95;97012.41;4986373;28;19957;-76
2022/02/10 19:08:24;;;;;;;;;;;;;;;6.26;66.36;97003.69;4979127;28;19955;-76
2022/02/10 19:10:56;;;;;;;;;;;;;;;6.27;66.50;97005.28;4986068;28;19956;-76
2022/02/10 19:13:23;;;;;;;;;;;;;;;6.27;66.76;97000.06;4987122;28;19965;-76
2022/02/10 19:15:50;;;;;;;;;;;;;;;6.27;66.99;97002.69;4985951;28;19958;-76
2022/02/10 19:18:17;;;;;;;;;;;;;;;6.28;66.61;97006.91;4979171;28;19958;-76
2022/02/10 19:20:44;;;;;;;;;;;;;;;6.28;66.65;97006.91;4991043;28;19961;-76
2022/02/10 19:23:10;;;;;;;;;;;;;;;6.27;66.68;96998.28;4985792;28;19960;-76
2022/02/10 19:25:37;;;;;;;;;;;;;;;6.22;66.55;96987.59;4980915;28;19955;-76
2022/02/10 19:28:03;;;;;;;;;;;;;;;6.19;66.71;96990.53;4984859;28;19978;-76
2022/02/10 19:30:31;;;;;;;;;;;;;;;6.18;66.70;96988.13;4984969;28;19955;-76
2022/02/10 19:33:00;;;;;;;;;;;;;;;6.17;67.09;96989.91;4966804;28;19970;-76
2022/02/10 19:35:28;;;;;;;;;;;;;;;6.16;67.04;96983.09;4983948;28;20295;-76
2022/02/10 19:37:57;;;;;;;;;;;;;;;6.15;66.61;96985.84;4980351;28;19986;-76
2022/02/10 19:40:24;;;;;;;;;;;;;;;6.09;66.63;96982.97;4986863;28;19946;-76
2022/02/10 19:42:52;;;;;;;;;;;;;;;6.03;66.39;96988.88;4986653;28;19961;-75
2022/02/10 19:45:17;;;;;;;;;;;;;;;6.01;66.71;96984.84;4978394;28;19964;-75
2022/02/10 19:47:44;;;;;;;;;;;;;;;6.01;67.17;96985.66;4969270;28;20031;-75
2022/02/10 19:50:13;;;;;;;;;;;;;;;6.01;66.95;96987.47;4987765;28;19954;-76
2022/02/10 19:52:42;;;;;;;;;;;;;;;6.02;67.14;96979.44;4982319;28;19960;-76
2022/02/10 19:55:12;;;;;;;;;;;;;;;6.03;67.38;96990.69;4981051;28;19988;-76
2022/02/10 19:57:40;;;;;;;;;;;;;;;6.03;67.40;96975.88;4983964;28;19957;-76
2022/02/10 20:00:10;;;;;;;;;;;;;;;6.04;66.79;96961.06;4989051;28;19969;-75
2022/02/10 20:02:36;;;;;;;;;;;;;;;6.02;66.91;96968.22;4977069;28;19979;-77
2022/02/10 20:05:02;;;;;;;;;;;;;;;6.00;66.98;96980.63;4989167;28;20301;-76
2022/02/10 20:07:29;;;;;;;;;;;;;;;5.98;67.23;96970.38;4988015;28;19966;-75
2022/02/10 20:09:55;;;;;;;;;;;;;;;5.98;67.47;96965.16;4984343;28;19959;-76
2022/02/10 20:12:20;;;;;;;;;;;;;;;5.97;67.37;96960.16;4993470;28;19965;-77
2022/02/10 20:14:51;;;;;;;;;;;;;;;5.96;67.66;96958.53;4982409;28;20344;-76
2022/02/10 20:17:17;;;;;;;;;;;;;;;5.96;67.79;96953.31;4982533;28;19961;-76
2022/02/10 20:19:43;;;;;;;;;;;;;;;5.96;67.55;96951.50;4985847;28;20381;-76
2022/02/10 20:22:12;;;;;;;;;;;;;;;5.96;67.64;96950.72;4983515;28;19982;-76
2022/02/10 20:24:38;;;;;;;;;;;;;;;5.97;67.74;96947.94;4985523;28;19965;-76
2022/02/10 20:27:04;;;;;;;;;;;;;;;5.98;67.78;96948.75;4984016;28;19965;-77
2022/02/10 20:29:30;;;;;;;;;;;;;;;5.97;67.97;96950.53;4981643;28;19949;-76
2022/02/10 20:31:56;;;;;;;;;;;;;;;5.97;67.85;96945.34;4981478;28;20016;-76
2022/02/10 20:34:23;;;;;;;;;;;;;;;5.97;67.99;96945.34;4989434;28;19956;-76
2022/02/10 20:36:49;;;;;;;;;;;;;;;5.95;68.19;96949.91;4982349;28;20342;-76
2022/02/10 20:39:22;;;;;;;;;;;;;;;5.96;67.96;96946.31;4982666;28;19959;-76
2022/02/10 20:41:52;;;;;;;;;;;;;;;5.95;67.89;96941.28;4984179;28;19968;-75
2022/02/10 20:44:18;;;;;;;;;;;;;;;5.94;68.05;96943.03;4987301;28;19967;-76
2022/02/10 20:46:49;;;;;;;;;;;;;;;5.92;68.25;96939.00;4985298;28;19961;-76
2022/02/10 20:49:17;;;;;;;;;;;;;;;5.90;68.16;96934.78;4981976;28;19965;-76
2022/02/10 20:51:44;;;;;;;;;;;;;;;5.89;67.95;96929.75;4978496;28;19955;-76
2022/02/10 20:54:09;;;;;;;;;;;;;;;5.86;68.10;96924.91;4983409;28;19961;-76
2022/02/10 20:56:35;;;;;;;;;;;;;;;5.82;67.96;96919.25;4986057;28;19955;-76
2022/02/10 20:59:09;;;;;;;;;;;;;;;5.79;68.13;96918.78;4985796;28;20049;-76
2022/02/10 21:01:35;;;;;;;;;;;;;;;5.76;68.12;96917.34;4968445;28;19970;-76
2022/02/10 21:04:03;;;;;;;;;;;;;;;5.72;68.14;96915.28;4986683;28;19956;-76
2022/02/10 21:06:54;;;;;;;;;;;;;;;5.69;67.92;96919.84;4986747;28;20333;-76
2022/02/10 21:09:34;;;;;;;;;;;;;;;5.62;68.20;96918.91;4984802;28;19957;-76
2022/02/10 21:12:00;;;;;;;;;;;;;;;5.55;68.35;96915.38;4988370;28;19958;-76
2022/02/10 21:14:28;;;;;;;;;;;;;;;5.49;68.00;96913.47;4991466;28;19950;-78
2022/02/10 21:16:56;;;;;;;;;;;;;;;5.44;68.28;96908.00;4988762;28;19955;-76
2022/02/10 21:19:24;;;;;;;;;;;;;;;5.39;68.32;96911.09;4991324;28;19958;-76
2022/02/10 21:21:51;;;;;;;;;;;;;;;5.35;68.43;96919.44;4987187;28;19969;-76
2022/02/10 21:24:24;;;;;;;;;;;;;;;5.30;68.35;96925.16;4983297;28;19953;-76
2022/02/10 21:27:28;;;;;;;;;;;;;;;5.25;68.59;96920.47;4985099;28;19969;-76
2022/02/10 21:29:42;;;;;;;;;;;;;;;5.23;68.96;96927.63;4997975;28;19953;-76
2022/02/10 21:32:08;;;;;;;;;;;;;;;5.21;68.62;96923.59;4987193;28;20475;-76
2022/02/10 21:34:47;;;;;;;;;;;;;;;5.18;68.72;96916.13;4985887;28;20298;-76
2022/02/10 21:37:17;;;;;;;;;;;;;;;5.16;69.09;96912.88;4989867;28;19974;-76
2022/02/10 21:40:01;;;;;;;;;;;;;;;5.14;69.24;96907.84;4982998;28;19960;-76
2022/02/10 22:19:41;;;;;;;;;;;;;;;5.23;71.06;96874.84;4982987;28;19963;-76
2022/02/10 22:22:14;;;;;;;;;;;;;;;5.23;71.13;96880.03;4985965;28;19976;-77
2022/02/10 22:24:40;;;;;;;;;;;;;;;5.24;72.04;96882.44;4990111;28;20302;-76
2022/02/10 22:27:06;;;;;;;;;;;;;;;5.26;71.48;96861.47;4988231;28;20017;-76
2022/02/10 22:29:48;;;;;;;;;;;;;;;5.27;71.43;96870.88;4981236;28;19954;-76
2022/02/10 22:32:54;;;;;;;;;;;;;;;5.27;71.50;96874.31;4980274;28;19966;-76
2022/02/10 22:35:06;;;;;;;;;;;;;;;5.30;71.46;96867.94;4978521;28;19985;-76
2022/02/10 22:37:32;;;;;;;;;;;;;;;5.32;71.44;96863.38;4986880;28;19973;-76
2022/02/10 22:39:59;;;;;;;;;;;;;;;5.32;71.57;96871.19;4988043;28;19965;-76
2022/02/10 22:42:31;;;;;;;;;;;;;;;5.32;71.89;96870.38;4981898;28;19968;-76
2022/02/10 22:44:56;;;;;;;;;;;;;;;5.33;71.83;96861.56;4980139;28;19971;-76
2022/02/10 22:47:22;;;;;;;;;;;;;;;5.32;71.79;96855.56;4991171;28;19960;-76
2022/02/10 22:49:48;;;;;;;;;;;;;;;5.33;71.80;96853.78;4984467;28;20002;-76
2022/02/10 22:52:14;;;;;;;;;;;;;;;5.32;71.88;96849.56;4971880;28;19957;-76
2022/02/10 22:54:40;;;;;;;;;;;;;;;5.32;71.97;96858.19;4984744;28;20020;-76
2022/02/10 22:57:06;;;;;;;;;;;;;;;5.34;72.10;96860.63;4978719;28;19956;-76
2022/02/10 22:59:33;;;;;;;;;;;;;;;5.35;72.18;96859.63;4985522;28;20008;-76
2022/02/10 23:02:00;;;;;;;;;;;;;;;5.34;72.23;96856.22;4981730;28;20367;-76
2022/02/10 23:04:25;;;;;;;;;;;;;;;5.36;72.28;96861.25;4979614;28;19976;-76
2022/02/10 23:06:56;;;;;;;;;;;;;;;5.37;72.23;96857.66;4989322;28;20010;-76
2022/02/10 23:11:54;;;;;;;;;;;;;;;5.39;72.38;96866.09;4982597;28;19962;-76
2022/02/10 23:14:20;;;;;;;;;;;;;;;5.38;72.80;96860.09;4980182;28;20330;-76
2022/02/10 23:16:47;;;;;;;;;;;;;;;5.39;72.53;96853.88;4983965;28;19957;-75
2022/02/10 23:19:13;;;;;;;;;;;;;;;5.40;72.77;96862.53;4986713;28;20415;-75
2022/02/10 23:21:39;;;;;;;;;;;;;;;5.40;73.27;96871.13;4981658;28;19971;-75
2022/02/10 23:24:05;;;;;;;;;;;;;;;5.39;73.08;96861.69;4984604;28;19957;-75
2022/02/10 23:26:32;;;;;;;;;;;;;;;5.40;72.90;96846.91;4984057;28;19973;-75
2022/02/10 23:28:58;;;;;;;;;;;;;;;5.40;72.90;96852.13;4985033;28;19958;-76
2022/02/10 23:31:25;;;;;;;;;;;;;;;5.39;73.18;96850.47;4984670;28;19961;-76
2022/02/10 23:33:55;;;;;;;;;;;;;;;5.40;73.08;96850.31;4979758;28;20515;-76
2022/02/10 23:43:58;;;;;;;;;;;;;;;5.44;72.97;96840.38;4984813;28;19959;-76
2022/02/10 23:46:24;;;;;;;;;;;;;;;5.44;73.01;96843.78;4988773;28;19966;-76
2022/02/10 23:48:53;;;;;;;;;;;;;;;5.45;73.17;96832.38;4983164;28;20002;-76
2022/02/10 23:51:21;;;;;;;;;;;;;;;5.46;73.32;96835.81;4981321;28;19958;-76
2022/02/10 23:53:47;;;;;;;;;;;;;;;5.47;73.36;96840.81;4987232;28;19956;-76
2022/02/10 23:56:16;;;;;;;;;;;;;;;5.48;73.49;96852.03;4984330;28;20076;-76
